KMYF/MYF METAR and TAF weather

Enter ICAO airport designator
Station Type Date Time Source
KMYF METAR 2021/03/09 10:10 UTC NOAA

KMYF 091010Z AUTO 00000KT 10SM BKN025 11/08 A3014 RMK AO2 T01060083


Station Type Date Time Source
KMYF Decoded METAR 2021/03/09 10:10 UTC NOAA

SAN DIEGO MONTGOMERY FIELD, CA, United States (KMYF) 32-49N 117-08W 136M
Mar 09, 2021 - 05:10 AM EST / 2021.03.09 1010 UTC
Wind: Calm:0
Visibility: 10 mile(s):0
Sky conditions: mostly cloudy
Temperature: 51.1 F (10.6 C)
Dew Point: 46.9 F (8.3 C)
Relative Humidity: 85%
Pressure (altimeter): 30.14 in. Hg (1020 hPa)
ob: KMYF 091010Z AUTO 00000KT 10SM BKN025 11/08 A3014 RMK AO2 T01060083
cycle: 10

Station Type Date Time Source
KMYF TAF UTC NOAA

Error!

Example: see airport list